Time;durP1;ratioP1;P1;durP2;ratioP2;P2;SDS_P1;SDS_P2;PMS_P1;PMS_P2;Temp;Humidity;BMP_temperature;BMP_pressure;BME280_temperature;BME280_humidity;BME280_pressure;Samples;Min_cycle;Max_cycle;Signal;HPM_P1;HPM_P2
2022/06/18 00:02:02;;;;;;;2.67;0.52;;;;;;;19.00;73.01;98804.81;15282161;19;20022;-76
2022/06/18 00:07:09;;;;;;;0.88;0.32;;;;;;;18.98;74.19;98806.09;15276484;19;20027;-75
2022/06/18 00:17:38;;;;;;;0.47;0.35;;;;;;;18.87;75.95;98799.31;15270882;19;20098;-75
2022/06/18 00:22:45;;;;;;;1.17;0.38;;;;;;;18.82;76.78;98799.09;15283897;19;20014;-76
2022/06/18 00:27:51;;;;;;;1.58;0.40;;;;;;;18.73;77.95;98804.75;15275100;19;20014;-76
2022/06/18 00:32:59;;;;;;;1.13;0.50;;;;;;;18.66;78.76;98786.66;15286833;19;20366;-76
2022/06/18 00:38:06;;;;;;;0.47;0.35;;;;;;;18.60;78.80;98791.03;15320408;19;20015;-77
2022/06/18 00:43:17;;;;;;;0.98;0.43;;;;;;;18.54;79.66;98791.84;15331722;19;20060;-75
2022/06/18 00:48:30;;;;;;;1.55;0.40;;;;;;;18.46;81.16;98793.72;15270154;19;20010;-75
2022/06/18 00:53:42;;;;;;;1.70;0.40;;;;;;;18.39;81.04;98779.22;15272972;19;20026;-76
2022/06/18 00:59:13;;;;;;;2.50;0.43;;;;;;;18.33;81.82;98780.88;15274735;19;20042;-75
2022/06/18 01:04:26;;;;;;;;;;;;;;;18.27;85.37;98772.66;15276548;19;20365;-76
2022/06/18 01:09:34;;;;;;;1.15;0.50;;;;;;;18.22;83.62;98772.41;15278844;19;19918;-75
2022/06/18 01:14:41;;;;;;;1.90;0.52;;;;;;;18.12;84.90;98759.13;15276000;19;20396;-76
2022/06/18 01:19:51;;;;;;;2.45;0.47;;;;;;;18.08;85.53;98753.25;15275387;19;20011;-76
2022/06/18 01:25:05;;;;;;;2.40;0.50;;;;;;;18.03;86.79;98750.31;15290270;19;20015;-77
2022/06/18 01:30:15;;;;;;;0.70;0.30;;;;;;;17.94;87.67;98752.31;15340145;19;20015;-79
2022/06/18 01:35:22;;;;;;;0.73;0.30;;;;;;;17.83;91.60;98750.97;15305232;19;20025;-79
2022/06/18 01:40:49;;;;;;;1.38;0.40;;;;;;;17.76;90.92;98741.94;15286474;19;20015;-79
2022/06/18 01:45:59;;;;;;;0.80;0.40;;;;;;;17.69;93.98;98736.44;15283948;19;20020;-80
2022/06/18 01:51:13;;;;;;;1.45;0.40;;;;;;;17.67;93.57;98735.78;15277002;19;20018;-77
2022/06/18 01:56:24;;;;;;;4.00;0.50;;;;;;;17.63;93.93;98733.66;15264743;19;20070;-76
2022/06/18 02:01:31;;;;;;;1.52;0.30;;;;;;;17.62;94.96;98731.97;15270603;19;20232;-76
2022/06/18 02:06:39;;;;;;;0.93;0.40;;;;;;;17.64;92.99;98727.19;15267724;19;20007;-77
2022/06/18 02:11:47;;;;;;;1.95;0.40;;;;;;;17.62;92.82;98708.31;15276658;19;20038;-77
2022/06/18 02:16:54;;;;;;;1.08;0.50;;;;;;;17.62;93.09;98705.59;15273725;19;20034;-77
2022/06/18 02:22:01;;;;;;;1.63;0.40;;;;;;;17.61;93.98;98703.06;15274141;19;20015;-77
2022/06/18 02:27:13;;;;;;;0.40;0.40;;;;;;;17.59;95.15;98705.13;15263859;19;20011;-78
2022/06/18 02:32:26;;;;;;;1.30;0.45;;;;;;;17.59;92.53;98694.22;15280965;19;20039;-62
2022/06/18 02:37:33;;;;;;;2.40;0.50;;;;;;;17.53;92.69;98685.84;15279135;19;20015;-62
2022/06/18 02:42:41;;;;;;;4.55;0.50;;;;;;;17.53;92.46;98690.44;15292126;19;20042;-61
2022/06/18 02:47:47;;;;;;;0.90;0.43;;;;;;;17.51;91.84;98682.47;15288443;19;20015;-61
2022/06/18 02:52:55;;;;;;;1.30;0.50;;;;;;;17.48;92.44;98682.03;15282295;19;20018;-61
2022/06/18 02:58:08;;;;;;;3.03;0.55;;;;;;;17.46;92.98;98690.41;15281591;19;20467;-61
2022/06/18 03:03:15;;;;;;;1.60;0.40;;;;;;;17.40;94.02;98689.28;15286267;19;20486;-62
2022/06/18 03:08:21;;;;;;;3.15;0.50;;;;;;;17.37;95.24;98672.53;15276894;19;20475;-62
2022/06/18 03:13:28;;;;;;;1.15;0.50;;;;;;;17.37;94.13;98675.25;15286033;19;20035;-60
2022/06/18 03:18:35;;;;;;;1.38;0.52;;;;;;;17.36;94.73;98673.56;15285604;19;20014;-62
2022/06/18 03:23:40;;;;;;;0.40;0.40;;;;;;;17.36;93.70;98677.13;15283481;19;20014;-62
2022/06/18 03:28:49;;;;;;;2.17;0.60;;;;;;;17.36;93.95;98668.09;15276357;19;20014;-62
2022/06/18 03:33:54;;;;;;;1.83;0.50;;;;;;;17.35;95.15;98666.44;15278424;19;20018;-64
2022/06/18 03:38:59;;;;;;;2.17;0.45;;;;;;;17.38;95.57;98666.03;15274236;19;20014;-61
2022/06/18 03:44:10;;;;;;;2.03;0.68;;;;;;;17.39;95.39;98667.72;15273829;19;20014;-61
2022/06/18 03:49:25;;;;;;;0.85;0.40;;;;;;;17.41;94.82;98665.66;15273588;19;20022;-62
2022/06/18 03:54:31;;;;;;;1.60;0.57;;;;;;;17.44;93.02;98658.94;14766205;19;10000844;-62
2022/06/18 03:59:40;;;;;;;1.40;0.55;;;;;;;17.47;92.12;98647.66;15282037;19;20003;-62
2022/06/18 04:04:45;;;;;;;1.83;0.40;;;;;;;17.53;90.56;98647.69;15269623;19;20348;-62
2022/06/18 04:09:53;;;;;;;0.82;0.57;;;;;;;17.57;90.08;98645.41;15272639;19;20006;-62
2022/06/18 04:15:07;;;;;;;1.08;0.63;;;;;;;17.64;88.09;98648.16;15276146;19;20033;-60
2022/06/18 04:20:45;;;;;;;1.00;0.60;;;;;;;17.69;89.34;98648.41;15277222;19;20029;-59
2022/06/18 04:25:52;;;;;;;1.80;0.60;;;;;;;17.73;89.64;98652.41;15271195;19;20352;-61
2022/06/18 04:31:01;;;;;;;1.02;0.60;;;;;;;17.80;89.08;98647.84;15274483;19;20096;-62
2022/06/18 04:36:23;;;;;;;1.08;0.68;;;;;;;17.93;83.00;98649.78;15269868;19;20026;-63
2022/06/18 04:41:29;;;;;;;2.53;0.65;;;;;;;18.16;81.15;98652.22;15281257;19;20014;-63
2022/06/18 04:46:46;;;;;;;1.08;0.60;;;;;;;18.32;78.42;98652.88;15272282;19;20421;-62
2022/06/18 04:51:52;;;;;;;1.23;0.70;;;;;;;18.46;77.76;98651.84;15277747;19;20022;-63
2022/06/18 04:57:09;;;;;;;1.80;0.60;;;;;;;18.62;77.33;98658.78;15274057;19;20537;-64
2022/06/18 05:02:23;;;;;;;1.25;0.60;;;;;;;18.76;74.89;98662.38;15279557;19;20014;-61
2022/06/18 05:07:38;;;;;;;0.90;0.52;;;;;;;19.00;70.86;98656.53;15254149;19;20010;-52
2022/06/18 05:13:00;;;;;;;1.20;0.80;;;;;;;19.15;71.93;98659.06;15275662;19;20018;-54
2022/06/18 05:18:23;;;;;;;1.30;0.50;;;;;;;19.29;71.19;98659.88;15266434;19;20033;-51
2022/06/18 05:23:32;;;;;;;1.60;0.52;;;;;;;19.42;70.93;98656.28;15273978;19;20410;-55
2022/06/18 05:28:38;;;;;;;1.98;0.63;;;;;;;19.61;68.24;98647.19;15270802;19;20380;-52
2022/06/18 05:33:45;;;;;;;1.70;0.60;;;;;;;19.77;67.62;98656.00;15272633;19;20458;-54
2022/06/18 05:38:53;;;;;;;1.25;0.80;;;;;;;19.91;68.33;98662.28;15272331;19;20016;-55
2022/06/18 05:43:59;;;;;;;1.40;0.50;;;;;;;20.08;65.69;98654.41;15271297;19;20487;-53
2022/06/18 05:49:10;;;;;;;1.73;0.55;;;;;;;20.27;63.38;98639.81;15264583;19;20018;-55
2022/06/18 05:54:15;;;;;;;4.75;0.40;;;;;;;20.54;62.42;98634.16;15270794;19;20377;-52
2022/06/18 05:59:47;;;;;;;0.38;0.38;;;;;;;20.79;61.64;98636.13;15272697;19;20011;-52
2022/06/18 06:05:01;;;;;;;2.65;0.40;;;;;;;20.99;61.10;98635.13;15272969;19;20034;-52
2022/06/18 06:15:40;;;;;;;1.85;0.50;;;;;;;21.30;59.62;98625.97;15279802;19;20024;-52
2022/06/18 06:20:50;;;;;;;1.27;0.60;;;;;;;21.47;60.63;98612.50;15278264;19;20026;-53
2022/06/18 06:25:58;;;;;;;2.47;0.50;;;;;;;21.66;59.82;98615.31;15281415;19;20031;-54
2022/06/18 06:31:04;;;;;;;2.55;0.40;;;;;;;21.88;59.23;98601.09;15287491;19;20098;-51
2022/06/18 06:36:12;;;;;;;0.47;0.40;;;;;;;22.10;58.24;98594.06;15279050;19;20018;-52
2022/06/18 06:41:22;;;;;;;4.35;0.60;;;;;;;22.27;58.68;98590.66;15284789;19;20018;-51
2022/06/18 06:46:27;;;;;;;1.05;0.50;;;;;;;22.41;60.34;98588.59;15274502;19;20018;-56
2022/06/18 06:51:39;;;;;;;2.28;0.70;;;;;;;22.63;58.11;98586.97;15280345;19;20015;-49
2022/06/18 07:02:02;;;;;;;3.22;0.50;;;;;;;23.18;56.36;98573.94;15281652;19;20029;-54
2022/06/18 07:07:13;;;;;;;3.63;0.57;;;;;;;23.43;55.16;98564.63;15280632;19;20022;-48
2022/06/18 07:12:19;;;;;;;1.85;0.50;;;;;;;23.74;53.14;98556.19;15285628;19;20384;-51
2022/06/18 07:17:26;;;;;;;1.13;0.45;;;;;;;24.04;53.24;98546.91;15274852;19;20030;-53
2022/06/18 07:22:34;;;;;;;0.73;0.35;;;;;;;24.41;51.22;98555.56;15284355;19;20018;-50
2022/06/18 07:27:39;;;;;;;2.15;0.50;;;;;;;24.74;48.95;98548.41;15272127;19;20015;-53
2022/06/18 07:32:47;;;;;;;1.90;0.40;;;;;;;25.02;48.94;98543.88;15281190;19;20369;-57
2022/06/18 07:37:57;;;;;;;2.13;0.40;;;;;;;25.28;47.90;98544.25;15276173;19;20014;-57
2022/06/18 07:43:04;;;;;;;1.58;0.40;;;;;;;25.51;47.51;98532.16;15275828;19;20023;-55
2022/06/18 07:48:09;;;;;;;2.78;0.40;;;;;;;25.76;47.66;98538.22;15273147;19;20024;-52
2022/06/18 07:53:21;;;;;;;0.93;0.40;;;;;;;26.00;47.03;98527.75;15281247;19;20022;-55
2022/06/18 07:58:27;;;;;;;1.33;0.32;;;;;;;26.29;46.26;98524.72;15272299;19;20476;-51
2022/06/18 08:03:32;;;;;;;0.70;0.30;;;;;;;26.57;46.42;98522.78;15276501;19;20032;-55
2022/06/18 08:08:40;;;;;;;2.47;0.40;;;;;;;26.86;46.50;98516.94;15275425;19;20010;-54
2022/06/18 08:13:46;;;;;;;2.28;0.30;;;;;;;27.13;45.09;98516.84;15277229;19;20019;-54
2022/06/18 08:18:51;;;;;;;1.55;0.40;;;;;;;27.43;44.21;98500.66;15277151;19;20025;-54
2022/06/18 08:24:04;;;;;;;2.28;0.50;;;;;;;27.71;43.88;98496.63;15274737;19;20018;-52
2022/06/18 08:29:14;;;;;;;0.95;0.40;;;;;;;28.02;42.76;98493.91;15266052;19;20401;-54
2022/06/18 08:34:19;;;;;;;2.20;0.40;;;;;;;28.21;42.49;98485.94;15277337;19;20010;-56
2022/06/18 08:39:35;;;;;;;2.92;0.60;;;;;;;28.45;42.34;98485.41;15273058;19;20021;-57
2022/06/18 08:45:04;;;;;;;0.52;0.32;;;;;;;28.84;41.39;98484.00;15278361;19;20010;-57
2022/06/18 08:50:35;;;;;;;1.88;0.60;;;;;;;29.18;40.95;98470.31;15277974;19;20267;-57
2022/06/18 08:55:49;;;;;;;3.10;0.70;;;;;;;29.43;40.27;98473.28;15250463;19;20412;-56
2022/06/18 09:01:02;;;;;;;3.08;0.85;;;;;;;29.19;39.92;98477.53;15275275;19;20042;-57
2022/06/18 09:06:21;;;;;;;4.88;0.90;;;;;;;29.43;39.24;98479.69;15275082;19;20119;-57
2022/06/18 09:11:43;;;;;;;5.25;0.90;;;;;;;29.73;39.70;98474.25;15281129;19;20014;-57
2022/06/18 09:16:55;;;;;;;3.55;1.00;;;;;;;29.89;38.87;98461.09;15274810;19;20022;-53
2022/06/18 09:22:03;;;;;;;4.43;1.05;;;;;;;30.02;39.12;98456.88;15281513;19;20013;-54
2022/06/18 09:27:20;;;;;;;7.93;1.10;;;;;;;30.12;37.88;98460.41;15271071;19;20720;-55
2022/06/18 09:32:33;;;;;;;5.32;1.10;;;;;;;30.29;37.74;98436.94;15270548;19;20366;-57
2022/06/18 09:37:45;;;;;;;4.55;1.10;;;;;;;30.45;38.20;98445.97;15275222;19;20011;-57
2022/06/18 09:43:00;;;;;;;2.78;1.23;;;;;;;30.49;37.39;98435.09;15295917;19;20014;-56
2022/06/18 09:48:07;;;;;;;6.35;1.02;;;;;;;30.74;37.96;98445.16;15284793;19;20018;-56
2022/06/18 09:53:25;;;;;;;5.88;1.33;;;;;;;30.98;36.36;98441.56;15290460;19;20022;-56
2022/06/18 09:58:40;;;;;;;4.22;1.20;;;;;;;31.11;37.54;98440.00;15285663;19;20031;-57
2022/06/18 10:09:07;;;;;;;8.27;1.30;;;;;;;31.32;37.14;98413.63;15284349;19;20018;-54
2022/06/18 10:14:20;;;;;;;6.32;1.30;;;;;;;31.35;36.33;98415.78;15286819;19;20046;-55
2022/06/18 10:19:39;;;;;;;6.25;1.38;;;;;;;31.27;36.01;98408.13;15284604;19;20371;-54
2022/06/18 10:24:57;;;;;;;7.30;1.30;;;;;;;31.60;36.80;98411.00;15285595;19;20014;-55
2022/06/18 10:30:10;;;;;;;4.43;1.25;;;;;;;31.70;37.01;98407.28;15275168;19;20022;-54
2022/06/18 10:35:34;;;;;;;9.35;1.60;;;;;;;31.88;36.49;98408.41;15285014;19;20010;-57
2022/06/18 10:40:50;;;;;;;7.40;1.45;;;;;;;31.91;35.66;98402.22;15279422;19;20006;-58
2022/06/18 10:46:01;;;;;;;6.70;1.70;;;;;;;32.13;34.80;98392.38;15281216;19;20002;-60
2022/06/18 10:51:19;;;;;;;7.18;1.70;;;;;;;32.10;35.19;98398.56;15280939;19;20521;-55
2022/06/18 10:56:26;;;;;;;7.97;1.80;;;;;;;32.09;33.90;98386.59;15283803;19;20705;-56
2022/06/18 11:01:44;;;;;;;6.95;1.73;;;;;;;32.15;34.30;98390.13;15280488;19;20114;-55
2022/06/18 11:06:57;;;;;;;9.38;1.70;;;;;;;32.48;34.27;98389.28;15279705;19;20038;-52
2022/06/18 11:12:08;;;;;;;7.82;1.90;;;;;;;32.36;35.15;98382.25;15278270;19;20357;-54
2022/06/18 11:17:25;;;;;;;8.03;1.80;;;;;;;32.40;34.80;98396.41;15275903;19;20023;-56
2022/06/18 11:22:32;;;;;;;7.15;1.80;;;;;;;32.53;34.79;98394.78;15283488;19;20018;-56
2022/06/18 11:27:39;;;;;;;8.20;1.83;;;;;;;32.61;34.69;98404.41;15280957;19;20014;-53
2022/06/18 11:32:50;;;;;;;9.18;2.10;;;;;;;32.68;33.04;98390.84;15280015;19;20504;-54
2022/06/18 11:38:02;;;;;;;6.68;2.00;;;;;;;32.89;33.29;98397.72;15277424;19;20015;-57
2022/06/18 11:43:16;;;;;;;6.68;1.95;;;;;;;32.83;33.90;98382.22;15279074;19;20026;-53
2022/06/18 11:48:32;;;;;;;7.57;2.13;;;;;;;32.74;34.95;98378.47;15282063;19;20042;-52
2022/06/18 11:53:42;;;;;;;5.97;1.77;;;;;;;33.04;34.21;98387.38;15282079;19;20025;-54
2022/06/18 11:58:53;;;;;;;9.93;2.03;;;;;;;33.15;34.37;98379.63;15282283;19;20364;-53
2022/06/18 12:04:07;;;;;;;11.60;2.10;;;;;;;33.01;33.33;98374.03;15279773;19;20022;-56
2022/06/18 12:09:17;;;;;;;6.63;1.90;;;;;;;33.15;33.49;98360.91;15272155;19;20038;-52
2022/06/18 12:14:36;;;;;;;8.65;2.35;;;;;;;33.48;33.63;98357.94;15272000;19;20007;-55
2022/06/18 12:19:50;;;;;;;7.40;2.08;;;;;;;33.34;32.71;98368.34;15277640;19;20521;-58
2022/06/18 12:25:06;;;;;;;11.15;2.67;;;;;;;33.29;32.83;98343.31;15276421;19;20014;-57
2022/06/18 12:30:17;;;;;;;8.32;1.90;;;;;;;33.34;33.38;98351.59;15278263;19;20007;-53
2022/06/18 12:35:35;;;;;;;11.82;2.30;;;;;;;33.47;32.79;98342.34;15277273;19;20038;-52
2022/06/18 12:40:47;;;;;;;8.93;2.25;;;;;;;33.58;32.84;98331.75;15274600;19;20022;-52
2022/06/18 12:46:02;;;;;;;11.02;2.47;;;;;;;33.67;32.10;98326.25;15271182;19;20041;-54
2022/06/18 12:51:18;;;;;;;8.60;2.28;;;;;;;33.83;32.93;98325.84;15278315;19;20014;-55
2022/06/18 12:56:32;;;;;;;13.40;2.75;;;;;;;34.01;32.49;98313.69;15274254;19;20085;-54
2022/06/18 13:01:47;;;;;;;10.27;2.60;;;;;;;34.13;32.38;98315.88;15279804;19;20022;-52
2022/06/18 13:07:02;;;;;;;10.95;2.47;;;;;;;34.27;32.51;98304.63;15274641;19;20015;-52
2022/06/18 13:12:30;;;;;;;14.30;2.50;;;;;;;34.47;32.19;98306.03;15269263;19;20023;-53
2022/06/18 13:17:40;;;;;;;11.80;2.45;;;;;;;34.50;31.79;98301.78;15266741;19;20018;-52
2022/06/18 13:22:48;;;;;;;9.43;2.30;;;;;;;34.44;32.43;98286.28;15276613;19;20014;-55
2022/06/18 13:28:12;;;;;;;9.18;2.53;;;;;;;34.49;30.88;98283.34;15271467;19;20475;-53
2022/06/18 13:33:26;;;;;;;11.55;2.78;;;;;;;34.47;30.88;98294.03;15276106;19;20011;-52
2022/06/18 13:38:42;;;;;;;9.27;2.60;;;;;;;34.57;30.98;98285.34;15275777;19;20011;-56
2022/06/18 13:43:54;;;;;;;10.57;2.65;;;;;;;34.73;30.96;98266.13;15270617;19;20014;-57
2022/06/18 13:49:08;;;;;;;10.02;2.40;;;;;;;34.96;31.10;98269.66;15272611;19;20570;-54
2022/06/18 13:54:18;;;;;;;11.07;2.67;;;;;;;34.64;31.04;98268.88;15274095;19;20082;-58
2022/06/18 13:59:24;;;;;;;10.73;2.65;;;;;;;34.68;30.11;98261.50;15274819;19;20014;-54
2022/06/18 14:04:32;;;;;;;8.13;2.80;;;;;;;34.86;30.20;98264.34;15272108;19;20014;-53
2022/06/18 14:09:52;;;;;;;9.45;2.60;;;;;;;34.88;30.78;98260.06;15272106;19;20028;-52
2022/06/18 14:15:10;;;;;;;9.10;2.50;;;;;;;34.91;30.91;98239.00;15267962;19;20026;-59
2022/06/18 14:20:27;;;;;;;10.20;2.72;;;;;;;35.18;31.04;98249.06;15274671;19;20344;-51
2022/06/18 14:25:48;;;;;;;8.95;2.30;;;;;;;35.43;29.83;98237.41;15266993;19;20380;-51
2022/06/18 14:31:01;;;;;;;9.80;2.80;;;;;;;35.66;30.68;98223.19;15285489;19;20359;-58
2022/06/18 14:36:16;;;;;;;8.93;2.63;;;;;;;35.43;29.41;98220.59;15283472;19;20021;-51
2022/06/18 14:41:38;;;;;;;11.10;2.72;;;;;;;35.39;29.22;98216.78;15287663;19;20110;-50
2022/06/18 14:47:01;;;;;;;10.73;2.80;;;;;;;35.52;29.79;98207.41;15276339;19;20133;-52
2022/06/18 14:52:29;;;;;;;10.75;2.50;;;;;;;35.75;29.88;98207.19;15281119;19;20038;-53
2022/06/18 14:58:04;;;;;;;7.95;2.30;;;;;;;35.79;30.16;98196.97;15276609;19;20018;-57
2022/06/18 15:03:18;;;;;;;8.25;2.33;;;;;;;35.46;30.52;98186.31;15287574;19;20014;-50
2022/06/18 15:08:23;;;;;;;9.55;2.42;;;;;;;35.53;30.86;98192.25;15285973;19;20047;-53
2022/06/18 15:13:29;;;;;;;9.00;2.30;;;;;;;35.69;30.75;98172.91;15286353;19;20014;-57
2022/06/18 15:18:51;;;;;;;7.15;2.08;;;;;;;35.97;30.62;98174.47;15284735;19;21242;-52
2022/06/18 15:24:00;;;;;;;8.10;2.35;;;;;;;36.13;30.50;98169.13;15284350;19;20038;-54
2022/06/18 15:29:07;;;;;;;9.77;2.22;;;;;;;36.17;30.34;98151.28;15277191;19;20038;-57
2022/06/18 15:34:25;;;;;;;7.13;2.55;;;;;;;35.91;30.58;98149.44;15284446;19;20038;-52
2022/06/18 15:39:30;;;;;;;9.85;2.45;;;;;;;35.76;30.94;98161.19;15281150;19;20015;-57
2022/06/18 15:44:38;;;;;;;7.38;2.13;;;;;;;35.91;30.64;98142.97;15281452;19;20379;-54
2022/06/18 15:49:46;;;;;;;7.93;2.25;;;;;;;35.89;30.88;98145.28;15277999;19;20014;-54
2022/06/18 15:54:55;;;;;;;11.73;2.50;;;;;;;36.24;30.35;98137.56;15272774;19;20010;-54
2022/06/18 16:00:06;;;;;;;9.40;2.55;;;;;;;36.13;31.36;98115.84;15276828;19;20547;-55
2022/06/18 16:05:19;;;;;;;8.13;2.30;;;;;;;36.44;31.33;98112.72;15277173;19;20026;-51
2022/06/18 16:10:41;;;;;;;9.85;2.60;;;;;;;36.15;31.25;98119.97;15278444;19;20015;-54
2022/06/18 16:15:53;;;;;;;8.73;2.55;;;;;;;36.15;31.22;98105.97;15275266;19;20007;-57
2022/06/18 16:21:03;;;;;;;8.70;2.60;;;;;;;36.24;30.62;98109.53;15278947;19;20352;-55
2022/06/18 16:26:13;;;;;;;11.48;2.80;;;;;;;36.14;30.77;98109.91;15268854;19;20030;-52
2022/06/18 16:31:18;;;;;;;;;;;;;;;35.86;30.91;98110.38;15267421;19;20507;-57
2022/06/18 16:36:45;;;;;;;7.60;2.22;;;;;;;35.99;31.32;98113.31;15271318;19;20307;-54
2022/06/18 16:41:54;;;;;;;12.57;2.50;;;;;;;35.91;31.35;98107.38;15276891;19;20050;-59
2022/06/18 16:47:11;;;;;;;12.60;2.65;;;;;;;35.77;31.15;98107.59;15268034;19;20013;-53
2022/06/18 16:52:19;;;;;;;8.52;2.33;;;;;;;35.91;31.17;98118.59;15276026;19;20017;-55
2022/06/18 16:57:28;;;;;;;8.63;2.53;;;;;;;35.96;31.03;98109.19;15269681;19;20028;-52
2022/06/18 17:02:33;;;;;;;10.07;2.45;;;;;;;35.94;31.54;98114.31;15270205;19;20051;-53
2022/06/18 17:07:40;;;;;;;7.85;2.42;;;;;;;35.40;32.61;98114.81;15271853;19;20047;-59
2022/06/18 17:12:47;;;;;;;8.98;2.60;;;;;;;35.47;33.32;98117.94;15274337;19;20463;-61
2022/06/18 17:17:53;;;;;;;9.77;2.67;;;;;;;35.38;33.48;98105.91;15272498;19;20015;-60
2022/06/18 17:22:58;;;;;;;7.93;2.50;;;;;;;35.34;34.04;98106.56;15275266;19;20017;-56
2022/06/18 17:33:24;;;;;;;9.57;2.33;;;;;;;34.92;34.99;98100.72;15271549;19;20129;-56
2022/06/18 17:38:31;;;;;;;8.48;2.50;;;;;;;34.52;35.61;98098.06;15256709;19;20014;-52
2022/06/18 17:43:41;;;;;;;11.15;2.90;;;;;;;34.50;35.56;98100.41;15271617;19;20038;-57
2022/06/18 17:48:46;;;;;;;9.48;2.30;;;;;;;34.26;35.17;98101.66;15270768;19;20007;-55
2022/06/18 17:53:51;;;;;;;10.25;2.67;;;;;;;34.47;35.30;98092.66;15270898;19;20463;-56
2022/06/18 17:59:01;;;;;;;8.60;2.53;;;;;;;34.58;35.46;98093.97;15270431;19;20042;-58
2022/06/18 18:04:13;;;;;;;9.33;2.63;;;;;;;34.83;35.31;98095.09;15287068;19;20010;-52
2022/06/18 18:09:18;;;;;;;10.02;2.58;;;;;;;35.06;36.03;98096.94;15279486;19;20017;-54
2022/06/18 18:14:29;;;;;;;7.88;2.40;;;;;;;35.12;37.05;98098.38;15265338;19;20518;-53
2022/06/18 18:19:34;;;;;;;7.97;2.67;;;;;;;35.12;37.47;98090.00;15284998;19;20748;-53
2022/06/18 18:24:39;;;;;;;11.43;2.20;;;;;;;35.02;37.77;98093.97;15285255;19;20018;-56
2022/06/18 18:29:48;;;;;;;10.27;2.30;;;;;;;34.83;37.85;98092.31;15284251;19;20027;-55
2022/06/18 18:34:53;;;;;;;7.27;2.47;;;;;;;34.63;37.43;98091.03;15282559;19;20134;-56
2022/06/18 18:39:58;;;;;;;9.20;2.55;;;;;;;34.46;36.88;98094.63;15276709;19;20483;-56
2022/06/18 18:45:08;;;;;;;9.20;2.30;;;;;;;34.24;36.74;98092.75;15287620;19;20015;-53
2022/06/18 18:50:13;;;;;;;9.93;2.30;;;;;;;34.04;37.15;98083.84;15281862;19;20018;-55
2022/06/18 18:55:18;;;;;;;10.15;2.42;;;;;;;33.48;39.67;98092.66;15284390;19;20018;-55
2022/06/18 19:00:27;;;;;;;8.55;2.47;;;;;;;33.22;40.94;98097.28;15281149;19;20023;-57
2022/06/18 19:05:32;;;;;;;10.13;2.58;;;;;;;32.49;41.69;98076.69;15281131;19;20014;-58
2022/06/18 19:10:39;;;;;;;11.43;2.70;;;;;;;32.14;42.73;98076.34;15279609;19;20475;-56
2022/06/18 19:15:49;;;;;;;9.40;2.60;;;;;;;31.92;42.58;98091.84;15279567;19;20022;-57
2022/06/18 19:21:02;;;;;;;;;;;;;;;31.61;44.15;98086.88;15285530;19;20010;-56
2022/06/18 19:26:08;;;;;;;8.95;2.53;;;;;;;31.50;42.71;98086.25;15281206;19;19915;-55
2022/06/18 19:31:16;;;;;;;6.93;2.30;;;;;;;31.34;43.51;98082.91;15283265;19;20015;-54
2022/06/18 19:36:22;;;;;;;9.07;2.70;;;;;;;31.19;44.85;98094.34;15279478;19;20031;-56
2022/06/18 19:41:27;;;;;;;7.88;2.58;;;;;;;30.97;44.94;98094.97;15278639;19;21319;-58
2022/06/18 19:46:34;;;;;;;9.23;2.50;;;;;;;30.79;45.21;98108.63;15274249;19;20011;-57
2022/06/18 19:51:40;;;;;;;9.25;2.50;;;;;;;30.54;45.32;98112.59;15281860;19;20010;-57
2022/06/18 19:56:45;;;;;;;9.02;2.40;;;;;;;30.12;48.89;98102.03;15280644;19;20018;-57
2022/06/18 20:01:53;;;;;;;10.02;2.70;;;;;;;29.51;51.24;98107.16;15283227;19;20475;-57
2022/06/18 20:06:58;;;;;;;11.82;2.70;;;;;;;29.38;50.54;98099.53;15279467;19;20038;-56
2022/06/18 20:12:03;;;;;;;10.77;2.70;;;;;;;29.06;51.13;98096.19;15277423;19;20022;-55
2022/06/18 20:17:11;;;;;;;12.63;2.78;;;;;;;28.97;51.42;98105.44;15272889;19;20018;-54
2022/06/18 20:22:18;;;;;;;8.95;2.58;;;;;;;28.56;53.43;98099.06;15281024;19;20378;-57
2022/06/18 20:27:25;;;;;;;8.50;2.55;;;;;;;28.34;53.51;98105.03;15277761;19;20018;-57
2022/06/18 20:32:32;;;;;;;9.15;2.50;;;;;;;28.37;52.86;98092.53;15278785;19;20007;-56
2022/06/18 20:37:38;;;;;;;9.55;2.78;;;;;;;28.20;52.77;98090.97;15277441;19;20054;-57
2022/06/18 20:42:43;;;;;;;11.82;3.05;;;;;;;28.17;52.16;98091.53;15273665;19;20018;-56
2022/06/18 20:47:52;;;;;;;11.52;2.40;;;;;;;28.06;51.04;98090.75;15269277;19;20014;-57
2022/06/18 20:52:57;;;;;;;11.00;2.63;;;;;;;28.08;52.08;98082.13;15277567;19;20018;-56
2022/06/18 20:58:04;;;;;;;7.30;2.10;;;;;;;28.05;50.54;98077.19;15276369;19;20463;-56
2022/06/18 21:03:14;;;;;;;11.68;3.00;;;;;;;27.56;57.34;98065.75;15278672;19;20014;-55
2022/06/18 21:08:19;;;;;;;10.02;2.50;;;;;;;26.97;61.95;98070.81;15275180;19;20027;-56
2022/06/18 21:13:25;;;;;;;6.85;2.58;;;;;;;26.84;61.84;98072.19;15274093;19;20010;-55
2022/06/18 21:18:33;;;;;;;8.52;2.63;;;;;;;26.66;61.33;98062.50;15270909;19;20014;-56
2022/06/18 21:23:42;;;;;;;6.68;2.50;;;;;;;26.68;59.71;98059.47;15271172;19;20519;-54
2022/06/18 21:28:48;;;;;;;9.32;2.45;;;;;;;26.62;59.10;98055.88;15276316;19;20035;-53
2022/06/18 21:39:13;;;;;;;9.73;2.67;;;;;;;26.59;59.56;98048.94;15285337;19;20089;-53
2022/06/18 21:44:22;;;;;;;7.70;2.38;;;;;;;26.52;61.64;98047.59;15292212;19;20463;-54
2022/06/18 21:49:31;;;;;;;9.13;2.50;;;;;;;26.33;65.79;98045.34;15281906;19;20077;-53
2022/06/18 21:54:37;;;;;;;12.27;2.65;;;;;;;26.10;70.36;98043.94;15278578;19;20034;-56
2022/06/18 21:59:48;;;;;;;7.97;2.25;;;;;;;25.92;70.06;98045.25;15286227;19;20359;-54
2022/06/18 22:04:56;;;;;;;8.48;2.65;;;;;;;25.73;66.23;98037.44;15290579;19;20015;-52
2022/06/18 22:10:01;;;;;;;8.85;2.58;;;;;;;25.67;67.74;98039.34;15284029;19;20364;-55
2022/06/18 22:20:27;;;;;;;7.18;2.40;;;;;;;25.53;65.96;98016.09;15286714;19;20010;-52
2022/06/18 22:25:34;;;;;;;10.75;2.40;;;;;;;25.45;66.35;98014.72;15280917;19;20470;-56
2022/06/18 22:30:41;;;;;;;7.40;2.38;;;;;;;25.34;65.24;97999.19;15288742;19;20027;-55
2022/06/18 22:35:48;;;;;;;8.60;2.25;;;;;;;25.35;63.73;97995.31;15287234;19;20478;-54
2022/06/18 22:40:53;;;;;;;11.40;2.65;;;;;;;25.36;62.49;97994.22;15287197;19;20038;-55
2022/06/18 22:46:00;;;;;;;7.18;2.42;;;;;;;25.38;62.12;97992.03;15286752;19;20017;-56
2022/06/18 22:51:08;;;;;;;9.20;2.38;;;;;;;25.32;64.09;97985.66;15283361;19;20081;-56
2022/06/18 22:56:17;;;;;;;9.60;2.47;;;;;;;25.28;62.74;97978.19;15285615;19;20018;-54
2022/06/18 23:01:22;;;;;;;9.18;2.47;;;;;;;25.23;63.58;97968.78;15282914;19;20015;-52
2022/06/18 23:06:30;;;;;;;8.85;2.20;;;;;;;25.16;62.95;97957.19;15284456;19;20010;-52
2022/06/18 23:11:49;;;;;;;10.52;2.58;;;;;;;25.11;61.61;97945.31;15287269;19;20029;-52
2022/06/18 23:16:57;;;;;;;8.30;2.60;;;;;;;25.06;61.26;97946.94;15283318;19;20051;-55
2022/06/18 23:22:06;;;;;;;7.13;2.28;;;;;;;25.04;60.53;97937.28;15287507;19;20011;-52
2022/06/18 23:27:11;;;;;;;9.77;2.53;;;;;;;24.94;61.16;97938.06;15279888;19;20034;-57
2022/06/18 23:32:20;;;;;;;8.18;2.38;;;;;;;24.84;62.19;97960.88;15275846;19;20046;-52
2022/06/18 23:37:33;;;;;;;8.13;2.20;;;;;;;24.61;64.23;97962.91;15282532;19;20054;-54
2022/06/18 23:42:38;;;;;;;8.23;2.40;;;;;;;24.39;65.40;97964.94;15285264;19;20046;-56
2022/06/18 23:47:44;;;;;;;10.25;2.63;;;;;;;24.38;65.61;97971.53;15282139;19;20050;-54
2022/06/18 23:52:52;;;;;;;6.70;2.20;;;;;;;24.32;65.87;97948.63;15280235;19;20010;-53
2022/06/18 23:57:57;;;;;;;8.63;2.00;;;;;;;24.26;65.64;97945.03;15271749;19;20014;-56
